createdAt,value
2018-06-24T00:00:51.040Z,64.62
2018-06-24T00:01:57.782Z,64.67
2018-06-24T00:03:04.542Z,64.69
2018-06-24T00:04:11.254Z,64.70
2018-06-24T00:05:17.999Z,64.73
2018-06-24T00:06:24.722Z,64.80
2018-06-24T00:07:31.502Z,64.87
2018-06-24T00:08:38.206Z,64.81
2018-06-24T00:09:45.013Z,64.77
2018-06-24T00:10:51.770Z,64.73
2018-06-24T00:11:58.523Z,64.73
2018-06-24T00:13:05.373Z,64.73
2018-06-24T00:14:12.148Z,64.74
2018-06-24T00:15:18.891Z,64.78
2018-06-24T00:16:25.609Z,64.86
2018-06-24T00:17:32.488Z,64.90
2018-06-24T00:18:39.262Z,64.89
2018-06-24T00:19:46.062Z,64.85
2018-06-24T00:20:52.804Z,64.88
2018-06-24T00:21:59.534Z,64.84
2018-06-24T00:23:06.297Z,64.91
2018-06-24T00:24:13.058Z,64.79
2018-06-24T00:25:19.771Z,64.85
2018-06-24T00:26:26.544Z,64.85
2018-06-24T00:27:33.262Z,64.93
2018-06-24T00:28:40.070Z,64.98
2018-06-24T00:29:46.794Z,65.00
2018-06-24T00:30:53.523Z,65.01
2018-06-24T00:32:00.262Z,65.02
2018-06-24T00:33:07.056Z,65.13
2018-06-24T00:34:13.862Z,65.16
2018-06-24T00:35:20.602Z,65.16
2018-06-24T00:36:27.414Z,65.17
2018-06-24T00:37:34.166Z,65.24
2018-06-24T00:38:40.934Z,65.28
2018-06-24T00:39:47.629Z,65.27
2018-06-24T00:40:54.377Z,65.30
2018-06-24T00:42:01.071Z,65.34
2018-06-24T00:43:07.830Z,65.38
2018-06-24T00:44:14.576Z,65.42
2018-06-24T00:45:21.374Z,65.50
2018-06-24T00:46:28.072Z,65.54
2018-06-24T00:47:34.834Z,65.64
2018-06-24T00:48:41.539Z,65.66
2018-06-24T00:49:48.559Z,65.72
2018-06-24T00:50:55.304Z,65.75
2018-06-24T00:52:02.091Z,65.80
2018-06-24T00:53:08.810Z,65.82
2018-06-24T00:54:15.587Z,65.87
2018-06-24T00:55:22.317Z,65.89
2018-06-24T00:56:29.046Z,65.97
2018-06-24T00:57:35.802Z,66.03
2018-06-24T00:58:42.567Z,66.11
2018-06-24T00:59:49.391Z,66.19
2018-06-24T01:00:56.399Z,66.29
2018-06-24T01:02:03.155Z,66.39
2018-06-24T01:03:09.888Z,66.42
2018-06-24T01:04:16.662Z,66.50
2018-06-24T01:05:23.366Z,66.57
2018-06-24T01:06:30.114Z,66.57
2018-06-24T01:07:36.867Z,66.64
2018-06-24T01:08:43.676Z,66.69
2018-06-24T01:09:50.481Z,66.73
2018-06-24T01:10:57.227Z,66.80
2018-06-24T01:12:04.075Z,66.86
2018-06-24T01:13:10.886Z,66.86
2018-06-24T01:14:17.642Z,66.93
2018-06-24T01:15:24.369Z,66.92
2018-06-24T01:16:31.083Z,66.94
2018-06-24T01:17:37.850Z,66.99
2018-06-24T01:18:44.578Z,67.07
2018-06-24T01:19:51.349Z,67.14
2018-06-24T01:20:58.177Z,67.19
2018-06-24T01:22:05.298Z,67.25
2018-06-24T01:23:12.027Z,67.33
2018-06-24T01:24:18.764Z,67.41
2018-06-24T01:25:25.490Z,67.49
2018-06-24T01:26:32.230Z,67.54
2018-06-24T01:27:38.962Z,67.56
2018-06-24T01:28:45.714Z,67.59
2018-06-24T01:29:52.478Z,67.65
2018-06-24T01:30:59.201Z,67.70
2018-06-24T01:32:05.953Z,67.79
2018-06-24T01:33:12.726Z,67.83
2018-06-24T01:34:19.558Z,67.90
2018-06-24T01:35:26.352Z,68.00
2018-06-24T01:36:33.149Z,68.07
2018-06-24T01:37:39.963Z,68.13
2018-06-24T01:38:46.749Z,68.17
2018-06-24T01:39:53.593Z,68.19
2018-06-24T01:41:00.346Z,68.27
2018-06-24T01:42:07.113Z,68.35
2018-06-24T01:43:13.922Z,68.39
2018-06-24T01:44:20.673Z,68.46
2018-06-24T01:45:27.446Z,68.52
2018-06-24T01:46:34.277Z,68.59
2018-06-24T01:47:41.035Z,68.67
2018-06-24T01:48:47.767Z,68.76
2018-06-24T01:49:54.521Z,68.81
2018-06-24T01:51:01.286Z,68.84
2018-06-24T01:52:08.026Z,68.93
2018-06-24T01:53:14.774Z,69.01
2018-06-24T01:54:21.605Z,69.03
2018-06-24T01:55:28.387Z,69.08
2018-06-24T01:56:35.149Z,69.16
2018-06-24T01:57:41.988Z,69.18
2018-06-24T01:58:48.781Z,69.27
2018-06-24T01:59:55.626Z,69.34
2018-06-24T02:02:09.626Z,69.55
2018-06-24T02:03:16.537Z,69.63
2018-06-24T02:04:23.331Z,69.74
2018-06-24T02:05:30.300Z,69.84
2018-06-24T02:06:37.228Z,69.89
2018-06-24T02:07:44.123Z,69.97
2018-06-24T02:08:50.982Z,70.03
2018-06-24T02:09:57.769Z,70.10
2018-06-24T02:11:04.563Z,70.18
2018-06-24T02:12:11.451Z,70.22
2018-06-24T02:13:18.231Z,70.31
2018-06-24T02:14:25.042Z,70.34
2018-06-24T02:15:31.821Z,70.35
2018-06-24T02:16:38.690Z,70.47
2018-06-24T02:17:45.564Z,70.52
2018-06-24T02:18:52.363Z,70.58
2018-06-24T02:19:59.181Z,70.67
2018-06-24T02:21:06.023Z,70.74
2018-06-24T02:22:12.812Z,70.73
2018-06-24T02:23:19.658Z,70.75
2018-06-24T02:24:26.440Z,70.79
2018-06-24T02:25:33.250Z,70.88
2018-06-24T02:26:40.023Z,70.94
2018-06-24T02:27:46.828Z,71.00
2018-06-24T02:28:53.627Z,71.03
2018-06-24T02:30:00.587Z,71.11
2018-06-24T02:31:07.948Z,71.13
2018-06-24T02:32:14.263Z,71.21
2018-06-24T02:33:21.155Z,71.29
2018-06-24T02:34:27.954Z,71.39
2018-06-24T02:35:34.767Z,71.41
2018-06-24T02:36:41.579Z,71.43
2018-06-24T02:37:48.699Z,71.40
2018-06-24T02:38:55.511Z,71.40
2018-06-24T02:40:02.309Z,71.44
2018-06-24T02:41:09.172Z,71.48
2018-06-24T02:42:16.017Z,71.57
2018-06-24T02:43:22.824Z,71.61
2018-06-24T02:44:29.637Z,71.61
2018-06-24T02:45:36.562Z,71.67
2018-06-24T02:46:43.475Z,71.73
2018-06-24T02:47:50.333Z,71.78
2018-06-24T02:48:57.115Z,71.89
2018-06-24T02:50:03.989Z,71.96
2018-06-24T02:51:10.898Z,72.00
2018-06-24T02:52:17.603Z,72.08
2018-06-24T02:53:24.419Z,72.13
2018-06-24T02:54:31.250Z,72.15
2018-06-24T02:55:38.094Z,72.22
2018-06-24T02:56:45.116Z,72.25
2018-06-24T02:57:51.931Z,72.26
2018-06-24T02:58:58.779Z,72.24
2018-06-24T03:00:05.747Z,72.21
2018-06-24T03:01:12.776Z,72.26
2018-06-24T03:02:19.586Z,72.36
2018-06-24T03:03:26.528Z,72.41
2018-06-24T03:04:33.635Z,72.44
2018-06-24T03:05:40.567Z,72.46
2018-06-24T03:06:47.520Z,72.47
2018-06-24T03:07:54.447Z,72.50
2018-06-24T03:09:01.269Z,72.53
2018-06-24T03:10:08.345Z,72.58
2018-06-24T03:11:15.195Z,72.62
2018-06-24T03:12:22.117Z,72.70
2018-06-24T03:13:29.071Z,72.72
2018-06-24T03:14:36.028Z,72.75
2018-06-24T03:15:43.057Z,72.79
2018-06-24T03:16:49.963Z,72.82
2018-06-24T03:17:56.882Z,72.84
2018-06-24T03:19:03.815Z,72.90
2018-06-24T03:20:10.745Z,72.95
2018-06-24T03:21:17.854Z,73.04
2018-06-24T03:22:24.807Z,73.12
2018-06-24T03:23:31.662Z,73.15
2018-06-24T03:24:38.670Z,73.21
2018-06-24T03:25:45.592Z,73.26
2018-06-24T03:26:52.466Z,73.28
2018-06-24T03:27:59.311Z,73.37
2018-06-24T03:29:06.179Z,73.39
2018-06-24T03:30:13.146Z,73.45
2018-06-24T03:31:20.217Z,73.54
2018-06-24T03:32:27.135Z,73.58
2018-06-24T03:33:34.103Z,73.66
2018-06-24T03:34:41.024Z,73.69
2018-06-24T03:35:48.036Z,73.69
2018-06-24T03:36:55.026Z,73.73
2018-06-24T03:38:01.982Z,73.79
2018-06-24T03:39:08.977Z,73.85
2018-06-24T03:40:16.146Z,73.87
2018-06-24T03:41:23.123Z,73.90
2018-06-24T03:42:29.910Z,73.96
2018-06-24T03:43:36.565Z,73.97
2018-06-24T03:44:43.610Z,73.97
2018-06-24T03:45:50.502Z,73.98
2018-06-24T03:46:57.579Z,74.00
2018-06-24T03:48:04.611Z,74.03
2018-06-24T03:49:11.557Z,74.03
2018-06-24T03:50:18.457Z,74.05
2018-06-24T03:51:25.474Z,74.07
2018-06-24T03:52:32.537Z,74.10
2018-06-24T03:53:39.660Z,74.15
2018-06-24T03:54:46.626Z,74.21
2018-06-24T03:55:53.604Z,74.24
2018-06-24T03:57:00.551Z,74.33
2018-06-24T03:58:07.601Z,74.37
2018-06-24T03:59:14.879Z,74.45
2018-06-24T04:00:21.379Z,74.49
2018-06-24T04:01:28.264Z,74.50
2018-06-24T04:02:35.038Z,74.55
2018-06-24T04:03:42.034Z,74.60
2018-06-24T04:04:49.481Z,74.66
2018-06-24T04:05:55.989Z,74.71
2018-06-24T04:07:02.943Z,74.71
2018-06-24T04:08:09.949Z,74.77
2018-06-24T04:09:17.072Z,74.85
2018-06-24T04:10:24.030Z,74.87
2018-06-24T04:11:30.905Z,74.89
2018-06-24T04:12:37.858Z,74.95
2018-06-24T04:13:44.810Z,74.98
2018-06-24T04:14:51.750Z,75.03
2018-06-24T04:15:58.721Z,75.10
2018-06-24T04:17:05.757Z,75.12
2018-06-24T04:18:12.853Z,75.19
2018-06-24T04:19:19.867Z,75.22
2018-06-24T04:20:26.825Z,75.27
2018-06-24T04:21:33.730Z,75.28
2018-06-24T04:22:40.695Z,75.31
2018-06-24T04:23:47.632Z,75.32
2018-06-24T04:24:54.582Z,75.37
2018-06-24T04:26:01.602Z,75.35
2018-06-24T04:27:08.634Z,75.43
2018-06-24T04:28:15.669Z,75.46
2018-06-24T04:29:22.607Z,75.49
2018-06-24T04:30:29.965Z,75.54
2018-06-24T04:31:36.438Z,75.59
2018-06-24T04:32:43.391Z,75.62
2018-06-24T04:33:50.459Z,75.69
2018-06-24T04:34:57.098Z,75.72
2018-06-24T04:36:04.038Z,75.78
2018-06-24T04:37:10.850Z,75.81
2018-06-24T04:38:17.786Z,75.88
2018-06-24T04:39:24.715Z,75.95
2018-06-24T04:40:31.657Z,75.96
2018-06-24T04:41:38.726Z,76.02
2018-06-24T04:42:45.746Z,76.07
2018-06-24T04:43:52.746Z,76.10
2018-06-24T04:44:59.818Z,76.12
2018-06-24T04:46:06.367Z,76.18
2018-06-24T04:47:13.472Z,76.20
2018-06-24T04:48:20.443Z,76.24
2018-06-24T04:49:27.478Z,76.28
2018-06-24T04:50:34.563Z,76.37
2018-06-24T04:51:41.937Z,76.39
2018-06-24T04:52:48.572Z,76.48
2018-06-24T04:53:55.291Z,76.50
2018-06-24T04:55:02.145Z,76.58
2018-06-24T04:56:09.231Z,76.63
2018-06-24T04:57:16.294Z,76.68
2018-06-24T04:58:23.207Z,76.72
2018-06-24T04:59:30.370Z,76.73
2018-06-24T05:00:37.315Z,76.73
2018-06-24T05:01:44.227Z,76.75
2018-06-24T05:02:51.560Z,76.78
2018-06-24T05:03:58.557Z,76.77
2018-06-24T05:05:05.865Z,76.78
2018-06-24T05:06:12.423Z,76.79
2018-06-24T05:07:19.523Z,76.85
2018-06-24T05:08:26.543Z,76.85
2018-06-24T05:09:33.723Z,76.85
2018-06-24T05:10:40.366Z,76.83
2018-06-24T05:11:47.755Z,76.83
2018-06-24T05:12:53.947Z,76.84
2018-06-24T05:14:01.017Z,76.83
2018-06-24T05:15:08.181Z,76.83
2018-06-24T05:16:15.194Z,76.88
2018-06-24T05:17:22.213Z,76.94
2018-06-24T05:18:30.914Z,77.01
2018-06-24T05:19:36.388Z,77.07
2018-06-24T05:21:50.580Z,77.20
2018-06-24T05:22:57.395Z,77.27
2018-06-24T05:24:04.515Z,77.37
2018-06-24T05:25:11.809Z,77.39
2018-06-24T05:26:18.776Z,77.44
2018-06-24T05:27:25.708Z,77.51
2018-06-24T05:28:32.288Z,77.58
2018-06-24T05:29:39.139Z,77.62
2018-06-24T05:30:45.826Z,77.65
2018-06-24T05:31:52.949Z,77.71
2018-06-24T05:32:59.976Z,77.79
2018-06-24T05:34:07.086Z,77.82
2018-06-24T05:35:14.175Z,77.85
2018-06-24T05:36:21.241Z,77.89
2018-06-24T05:37:27.738Z,77.91
2018-06-24T05:38:34.785Z,77.93
2018-06-24T05:39:41.873Z,77.96
2018-06-24T05:40:48.984Z,77.94
2018-06-24T05:41:55.914Z,77.88
2018-06-24T05:43:02.625Z,77.84
2018-06-24T05:44:09.354Z,77.78
2018-06-24T05:45:16.191Z,77.78
2018-06-24T05:46:22.962Z,77.84
2018-06-24T05:47:29.880Z,77.93
2018-06-24T05:48:36.929Z,77.97
2018-06-24T05:49:43.915Z,78.04
2018-06-24T05:50:50.992Z,78.13
2018-06-24T05:51:57.659Z,78.18
2018-06-24T05:53:04.533Z,78.20
2018-06-24T05:54:11.427Z,78.30
2018-06-24T05:55:19.114Z,78.27
2018-06-24T05:56:25.218Z,78.30
2018-06-24T05:57:32.116Z,78.41
2018-06-24T05:58:39.159Z,78.54
2018-06-24T05:59:46.194Z,78.68
2018-06-24T06:00:53.151Z,78.74
2018-06-24T06:02:00.039Z,78.71
2018-06-24T06:03:06.979Z,78.74
2018-06-24T06:04:13.813Z,78.78
2018-06-24T06:05:20.587Z,78.88
2018-06-24T06:06:27.698Z,78.95
2018-06-24T06:07:34.550Z,78.93
2018-06-24T06:08:41.378Z,79.03
2018-06-24T06:09:48.399Z,79.08
2018-06-24T06:10:55.244Z,79.05
2018-06-24T06:12:02.082Z,79.09
2018-06-24T06:13:09.022Z,79.15
2018-06-24T06:14:15.853Z,79.25
2018-06-24T06:15:22.641Z,79.33
2018-06-24T06:16:29.491Z,79.34
2018-06-24T06:17:36.330Z,79.37
2018-06-24T06:18:43.320Z,79.41
2018-06-24T06:19:50.151Z,79.45
2018-06-24T06:20:56.913Z,79.51
2018-06-24T06:22:03.764Z,79.66
2018-06-24T06:23:10.630Z,79.80
2018-06-24T06:24:17.334Z,79.95
2018-06-24T06:25:24.090Z,80.00
2018-06-24T06:26:30.851Z,79.99
2018-06-24T06:27:37.583Z,80.01
2018-06-24T06:28:44.351Z,80.07
2018-06-24T06:29:51.114Z,80.07
2018-06-24T06:30:57.942Z,80.21
2018-06-24T06:32:04.719Z,80.25
2018-06-24T06:33:11.506Z,80.40
2018-06-24T06:34:18.285Z,80.48
2018-06-24T06:35:24.974Z,80.51
2018-06-24T06:36:31.737Z,80.59
2018-06-24T06:37:38.498Z,80.73
2018-06-24T06:38:45.262Z,80.77
2018-06-24T06:39:51.991Z,80.81
2018-06-24T06:40:58.750Z,80.86
2018-06-24T06:42:05.474Z,80.89
2018-06-24T06:43:12.239Z,80.98
2018-06-24T06:44:19.019Z,81.12
2018-06-24T06:45:25.933Z,81.07
2018-06-24T06:46:32.615Z,81.04
2018-06-24T06:47:39.382Z,81.07
2018-06-24T06:48:46.146Z,81.06
2018-06-24T06:49:52.926Z,81.15
2018-06-24T06:50:59.781Z,81.23
2018-06-24T06:52:06.509Z,81.38
2018-06-24T06:53:13.302Z,81.45
2018-06-24T06:54:20.055Z,81.53
2018-06-24T06:55:26.850Z,81.68
2018-06-24T06:56:33.623Z,81.73
2018-06-24T06:57:40.484Z,81.80
2018-06-24T06:58:47.182Z,81.76
2018-06-24T06:59:53.982Z,81.77
2018-06-24T07:01:00.783Z,81.76
2018-06-24T07:02:07.703Z,81.80
2018-06-24T07:03:14.734Z,81.87
2018-06-24T07:04:21.619Z,81.99
2018-06-24T07:05:28.395Z,82.15
2018-06-24T07:06:35.199Z,82.14
2018-06-24T07:07:41.987Z,82.15
2018-06-24T07:08:48.746Z,82.06
2018-06-24T07:09:55.494Z,82.08
2018-06-24T07:11:02.256Z,82.16
2018-06-24T07:12:09.037Z,82.15
2018-06-24T07:13:15.819Z,82.14
2018-06-24T07:14:22.624Z,82.14
2018-06-24T07:15:29.416Z,81.99
2018-06-24T07:16:36.163Z,82.03
2018-06-24T07:17:43.006Z,82.02
2018-06-24T07:18:49.766Z,82.02
2018-06-24T07:19:56.534Z,82.02
2018-06-24T07:21:03.374Z,82.10
2018-06-24T07:22:10.235Z,82.11
2018-06-24T07:23:17.015Z,82.21
2018-06-24T07:24:23.794Z,82.20
2018-06-24T07:25:30.572Z,82.17
2018-06-24T07:26:37.366Z,82.26
2018-06-24T07:27:44.159Z,82.27
2018-06-24T07:28:50.906Z,82.30
2018-06-24T07:29:57.637Z,82.24
2018-06-24T07:31:04.390Z,82.27
2018-06-24T07:32:11.190Z,82.25
2018-06-24T07:33:18.050Z,82.25
2018-06-24T07:34:24.738Z,82.21
2018-06-24T07:35:31.499Z,82.21
2018-06-24T07:36:38.275Z,82.14
2018-06-24T07:37:45.015Z,82.12
2018-06-24T07:38:51.788Z,82.14
2018-06-24T07:39:58.534Z,82.12
2018-06-24T07:41:05.262Z,81.82
2018-06-24T07:42:12.023Z,81.71
2018-06-24T07:43:18.793Z,81.64
2018-06-24T07:44:25.622Z,81.53
2018-06-24T07:45:32.393Z,81.28
2018-06-24T07:46:39.157Z,81.24
2018-06-24T07:47:45.946Z,81.26
2018-06-24T07:48:52.677Z,81.11
2018-06-24T07:49:59.527Z,81.15
2018-06-24T07:51:06.303Z,80.98
2018-06-24T07:52:13.042Z,80.28
2018-06-24T07:53:19.841Z,80.26
2018-06-24T07:54:26.648Z,79.98
2018-06-24T07:55:33.381Z,79.67
2018-06-24T07:56:40.096Z,79.61
2018-06-24T07:57:46.903Z,79.44
2018-06-24T07:58:53.907Z,79.32
2018-06-24T08:00:00.759Z,79.19
2018-06-24T08:01:07.587Z,79.07
2018-06-24T08:02:14.327Z,78.71
2018-06-24T08:03:21.191Z,78.74
2018-06-24T08:04:27.945Z,78.54
2018-06-24T08:05:34.854Z,78.13
2018-06-24T08:06:41.622Z,77.96
2018-06-24T08:07:48.342Z,77.91
2018-06-24T08:08:55.079Z,77.68
2018-06-24T08:10:03.409Z,77.52
2018-06-24T08:11:08.668Z,77.45
2018-06-24T08:12:15.474Z,77.37
2018-06-24T08:13:22.282Z,77.17
2018-06-24T08:14:29.029Z,77.07
2018-06-24T08:15:35.755Z,76.68
2018-06-24T08:16:42.528Z,76.64
2018-06-24T08:17:49.306Z,76.54
2018-06-24T08:18:56.155Z,76.33
2018-06-24T08:20:02.971Z,76.42
2018-06-24T08:21:09.763Z,76.06
2018-06-24T08:22:16.589Z,75.94
2018-06-24T08:23:23.313Z,75.74
2018-06-24T08:24:30.097Z,75.69
2018-06-24T08:25:36.934Z,75.42
2018-06-24T08:26:43.742Z,75.38
2018-06-24T08:27:50.541Z,75.53
2018-06-24T08:28:57.293Z,75.42
2018-06-24T08:30:04.074Z,75.26
2018-06-24T08:31:10.839Z,75.00
2018-06-24T08:32:17.628Z,75.09
2018-06-24T08:33:24.429Z,75.06
2018-06-24T08:34:31.247Z,74.85
2018-06-24T08:35:38.055Z,74.48
2018-06-24T08:36:44.990Z,74.34
2018-06-24T08:37:51.741Z,73.97
2018-06-24T08:38:58.520Z,73.60
2018-06-24T08:40:05.328Z,73.57
2018-06-24T08:41:12.144Z,73.23
2018-06-24T08:42:18.979Z,73.20
2018-06-24T08:43:25.713Z,73.04
2018-06-24T08:44:32.474Z,72.48
2018-06-24T08:45:39.234Z,72.36
2018-06-24T08:46:46.019Z,72.38
2018-06-24T08:47:52.807Z,72.00
2018-06-24T08:48:59.542Z,71.67
2018-06-24T08:50:06.548Z,71.54
2018-06-24T08:51:13.284Z,71.61
2018-06-24T08:52:20.076Z,71.27
2018-06-24T08:53:26.875Z,71.12
2018-06-24T08:54:33.650Z,70.75
2018-06-24T08:55:40.437Z,70.42
2018-06-24T08:56:47.209Z,70.22
2018-06-24T08:57:53.993Z,70.11
2018-06-24T08:59:00.754Z,70.14
2018-06-24T09:00:07.581Z,70.27
2018-06-24T09:01:14.406Z,69.89
2018-06-24T09:02:21.112Z,69.94
2018-06-24T09:03:27.918Z,69.96
2018-06-24T09:04:34.706Z,70.05
2018-06-24T09:05:41.661Z,70.00
2018-06-24T09:06:48.426Z,69.96
2018-06-24T09:07:55.171Z,69.85
2018-06-24T09:09:02.021Z,69.62
2018-06-24T09:10:08.726Z,69.52
2018-06-24T09:11:15.522Z,69.49
2018-06-24T09:12:22.391Z,69.27
2018-06-24T09:13:33.436Z,69.35
2018-06-24T09:14:36.286Z,69.41
2018-06-24T09:15:43.072Z,69.30
2018-06-24T09:16:49.788Z,69.45
2018-06-24T09:17:56.669Z,69.57
2018-06-24T09:19:03.664Z,69.49
2018-06-24T09:20:10.338Z,69.31
2018-06-24T09:21:17.118Z,69.31
2018-06-24T09:22:23.832Z,69.34
2018-06-24T09:23:30.558Z,69.37
2018-06-24T09:24:37.334Z,68.89
2018-06-24T09:25:44.169Z,68.97
2018-06-24T09:26:51.034Z,69.00
2018-06-24T09:27:57.854Z,68.87
2018-06-24T09:29:04.626Z,68.84
2018-06-24T09:30:11.520Z,68.72
2018-06-24T09:31:18.683Z,68.60
2018-06-24T09:32:25.306Z,68.64
2018-06-24T09:33:32.119Z,68.53
2018-06-24T09:34:39.090Z,68.60
2018-06-24T09:35:45.718Z,68.62
2018-06-24T09:36:52.519Z,68.59
2018-06-24T09:37:59.291Z,68.75
2018-06-24T09:39:06.079Z,68.48
2018-06-24T09:40:13.014Z,68.53
2018-06-24T09:41:19.826Z,68.09
2018-06-24T09:42:26.815Z,68.05
2018-06-24T09:43:34.242Z,68.23
2018-06-24T09:44:40.831Z,67.98
2018-06-24T09:45:47.878Z,67.68
2018-06-24T09:46:54.699Z,67.75
2018-06-24T09:48:01.813Z,67.90
2018-06-24T09:49:08.662Z,67.79
2018-06-24T09:50:15.438Z,67.55
2018-06-24T09:51:22.546Z,67.45
2018-06-24T09:52:29.641Z,67.28
2018-06-24T09:53:36.846Z,66.99
2018-06-24T09:54:43.683Z,66.89
2018-06-24T09:55:50.631Z,66.76
2018-06-24T09:56:57.634Z,66.40
2018-06-24T09:58:04.422Z,65.88
2018-06-24T09:59:11.260Z,65.61
2018-06-24T10:00:18.090Z,65.41
2018-06-24T10:01:25.394Z,65.32
2018-06-24T10:02:32.221Z,65.38
2018-06-24T10:03:39.540Z,65.13
2018-06-24T10:04:45.791Z,65.06
2018-06-24T10:05:52.843Z,65.05
2018-06-24T10:06:59.664Z,65.03
2018-06-24T10:08:07.438Z,64.93
2018-06-24T10:09:13.286Z,64.95
2018-06-24T10:10:20.237Z,64.71
2018-06-24T10:11:27.269Z,64.88
2018-06-24T10:12:34.532Z,64.75
2018-06-24T10:13:41.010Z,64.45
2018-06-24T10:14:47.879Z,64.41
2018-06-24T10:15:54.696Z,64.39
2018-06-24T10:17:01.511Z,64.37
2018-06-24T10:18:08.254Z,64.50
2018-06-24T10:19:15.087Z,64.44
2018-06-24T10:20:22.020Z,64.03
2018-06-24T10:21:29.062Z,64.14
2018-06-24T10:22:35.702Z,64.35
2018-06-24T10:23:42.483Z,64.08
2018-06-24T10:24:49.392Z,63.86
2018-06-24T10:25:56.295Z,63.58
2018-06-24T10:27:03.052Z,63.70
2018-06-24T10:28:09.856Z,63.55
2018-06-24T10:29:16.855Z,63.31
2018-06-24T10:30:23.728Z,63.21
2018-06-24T10:31:30.494Z,63.63
2018-06-24T10:32:37.502Z,63.37
2018-06-24T10:33:44.407Z,63.55
2018-06-24T10:34:51.142Z,63.28
2018-06-24T10:35:58.071Z,62.95
2018-06-24T10:37:04.914Z,62.72
2018-06-24T10:38:11.697Z,62.71
2018-06-24T10:39:18.491Z,62.48
2018-06-24T10:40:25.247Z,62.37
2018-06-24T10:41:32.075Z,61.73
2018-06-24T10:42:38.940Z,61.86
2018-06-24T10:43:45.681Z,61.61
2018-06-24T10:44:52.415Z,61.80
2018-06-24T10:45:59.167Z,61.31
2018-06-24T10:47:05.944Z,61.01
2018-06-24T10:48:12.698Z,60.89
2018-06-24T10:49:19.496Z,60.80
2018-06-24T10:50:26.258Z,60.87
2018-06-24T10:51:33.150Z,60.71
2018-06-24T10:52:40.015Z,60.88
2018-06-24T10:53:46.770Z,60.77
2018-06-24T10:54:53.509Z,60.88
2018-06-24T10:56:00.351Z,61.03
2018-06-24T10:57:07.182Z,61.09
2018-06-24T10:58:13.983Z,61.03
2018-06-24T10:59:20.749Z,61.12
2018-06-24T11:00:27.506Z,61.13
2018-06-24T11:01:34.230Z,61.27
2018-06-24T11:02:41.030Z,61.12
2018-06-24T11:03:47.862Z,60.80
2018-06-24T11:04:54.838Z,60.86
2018-06-24T11:06:01.559Z,60.75
2018-06-24T11:07:08.646Z,60.88
2018-06-24T11:08:15.423Z,60.93
2018-06-24T11:09:22.202Z,61.09
2018-06-24T11:10:28.902Z,61.09
2018-06-24T11:11:35.670Z,60.89
2018-06-24T11:12:42.414Z,60.92
2018-06-24T11:13:49.159Z,60.35
2018-06-24T11:14:55.909Z,60.52
2018-06-24T11:16:02.764Z,60.52
2018-06-24T11:17:09.655Z,60.33
2018-06-24T11:18:16.669Z,60.11
2018-06-24T11:19:23.425Z,60.07
2018-06-24T11:20:30.152Z,60.32
2018-06-24T11:21:36.925Z,60.00
2018-06-24T11:22:43.806Z,59.68
2018-06-24T11:23:50.746Z,59.57
2018-06-24T11:24:57.523Z,59.37
2018-06-24T11:26:04.369Z,59.09
2018-06-24T11:27:11.186Z,58.73
2018-06-24T11:28:17.990Z,58.87
2018-06-24T11:29:24.750Z,58.80
2018-06-24T11:30:31.522Z,58.91
2018-06-24T11:31:38.267Z,58.73
2018-06-24T11:32:45.045Z,58.49
2018-06-24T11:33:51.790Z,58.62
2018-06-24T11:34:58.543Z,58.72
2018-06-24T11:36:05.381Z,58.57
2018-06-24T11:37:12.240Z,58.43
2018-06-24T11:38:19.006Z,58.26
2018-06-24T11:39:25.794Z,58.40
2018-06-24T11:40:32.598Z,58.48
2018-06-24T11:41:39.526Z,58.32
2018-06-24T11:42:46.315Z,58.12
2018-06-24T11:43:53.099Z,58.18
2018-06-24T11:44:59.877Z,57.62
2018-06-24T11:46:06.648Z,57.38
2018-06-24T11:47:13.401Z,56.98
2018-06-24T11:48:20.211Z,57.08
2018-06-24T11:49:27.182Z,57.32
2018-06-24T11:50:34.002Z,56.95
2018-06-24T11:51:40.787Z,56.76
2018-06-24T11:52:47.534Z,56.57
2018-06-24T11:53:54.329Z,56.86
2018-06-24T11:55:01.133Z,56.48
2018-06-24T11:56:08.001Z,56.27
2018-06-24T11:57:14.746Z,56.04
2018-06-24T11:58:21.529Z,55.78
2018-06-24T11:59:28.331Z,55.46
2018-06-24T12:00:35.062Z,55.23
2018-06-24T12:01:41.878Z,55.18
2018-06-24T12:02:48.758Z,55.22
2018-06-24T12:03:55.534Z,54.52
2018-06-24T12:05:02.279Z,54.33
2018-06-24T12:06:09.069Z,54.09
2018-06-24T12:07:15.811Z,54.00
2018-06-24T12:08:22.621Z,54.07
2018-06-24T12:09:29.375Z,54.02
2018-06-24T12:10:36.146Z,53.89
2018-06-24T12:11:42.914Z,53.69
2018-06-24T12:12:49.693Z,53.76
2018-06-24T12:13:56.482Z,53.37
2018-06-24T12:15:03.246Z,53.16
2018-06-24T12:16:10.055Z,53.34
2018-06-24T12:17:16.745Z,53.44
2018-06-24T12:18:23.494Z,53.56
2018-06-24T12:19:30.193Z,53.57
2018-06-24T12:20:36.969Z,53.54
2018-06-24T12:21:43.702Z,53.55
2018-06-24T12:22:50.456Z,53.82
2018-06-24T12:23:57.275Z,53.63
2018-06-24T12:25:04.031Z,53.22
2018-06-24T12:26:10.846Z,53.53
2018-06-24T12:27:17.667Z,53.11
2018-06-24T12:28:24.491Z,53.02
2018-06-24T12:29:31.316Z,53.13
2018-06-24T12:30:38.103Z,53.28
2018-06-24T12:31:44.835Z,53.03
2018-06-24T12:32:51.654Z,53.20
2018-06-24T12:33:58.377Z,53.49
2018-06-24T12:35:05.122Z,53.27
2018-06-24T12:36:11.862Z,53.72
2018-06-24T12:37:18.626Z,53.67
2018-06-24T12:38:25.394Z,53.72
2018-06-24T12:39:32.174Z,53.63
2018-06-24T12:40:38.921Z,53.54
2018-06-24T12:41:45.654Z,53.29
2018-06-24T12:42:52.464Z,53.06
2018-06-24T12:43:59.263Z,52.90
2018-06-24T12:45:06.411Z,53.18
2018-06-24T12:46:13.238Z,52.90
2018-06-24T12:47:20.115Z,52.94
2018-06-24T12:48:26.862Z,52.86
2018-06-24T12:49:33.645Z,53.16
2018-06-24T12:50:40.453Z,53.41
2018-06-24T12:51:47.186Z,53.49
2018-06-24T12:52:54.070Z,53.43
2018-06-24T12:54:00.782Z,53.67
2018-06-24T12:55:07.630Z,53.34
2018-06-24T12:56:14.413Z,53.38
2018-06-24T12:57:21.153Z,53.30
2018-06-24T12:58:27.882Z,53.46
2018-06-24T12:59:35.014Z,53.47
2018-06-24T13:00:41.991Z,53.50
2018-06-24T13:01:48.294Z,53.80
2018-06-24T13:02:55.116Z,53.47
2018-06-24T13:04:01.918Z,53.29
2018-06-24T13:05:08.901Z,53.00
2018-06-24T13:06:15.622Z,53.08
2018-06-24T13:07:22.414Z,53.14
2018-06-24T13:08:29.422Z,53.14
2018-06-24T13:09:36.314Z,53.12
2018-06-24T13:10:43.086Z,52.91
2018-06-24T13:11:49.929Z,52.62
2018-06-24T13:12:56.769Z,52.42
2018-06-24T13:14:03.572Z,52.63
2018-06-24T13:15:10.394Z,52.81
2018-06-24T13:16:17.274Z,52.89
2018-06-24T13:17:24.065Z,52.71
2018-06-24T13:18:30.797Z,52.61
2018-06-24T13:19:37.519Z,52.37
2018-06-24T13:20:44.268Z,52.16
2018-06-24T13:21:51.001Z,52.19
2018-06-24T13:22:57.810Z,52.08
2018-06-24T13:24:04.566Z,52.22
2018-06-24T13:25:11.441Z,52.43
2018-06-24T13:26:18.551Z,52.32
2018-06-24T13:27:25.359Z,52.33
2018-06-24T13:28:32.209Z,52.24
2018-06-24T13:29:38.966Z,52.29
2018-06-24T13:30:45.903Z,51.94
2018-06-24T13:31:52.649Z,51.46
2018-06-24T13:32:59.405Z,51.42
2018-06-24T13:34:06.230Z,51.14
2018-06-24T13:35:12.989Z,50.98
2018-06-24T13:36:19.727Z,50.98
2018-06-24T13:37:26.639Z,51.20
2018-06-24T13:38:33.428Z,51.25
2018-06-24T13:39:40.351Z,51.32
2018-06-24T13:40:47.248Z,51.51
2018-06-24T13:41:54.165Z,51.32
2018-06-24T13:43:00.995Z,51.33
2018-06-24T13:44:07.852Z,51.54
2018-06-24T13:45:14.647Z,51.66
2018-06-24T13:46:21.607Z,51.64
2018-06-24T13:47:28.326Z,51.70
2018-06-24T13:48:35.125Z,51.54
2018-06-24T13:49:42.734Z,51.62
2018-06-24T13:50:49.346Z,51.50
2018-06-24T13:51:56.138Z,51.27
2018-06-24T13:53:02.942Z,51.49
2018-06-24T13:54:10.224Z,51.47
2018-06-24T13:55:16.793Z,51.26
2018-06-24T13:56:23.596Z,51.23
2018-06-24T13:57:30.405Z,51.21
2018-06-24T13:58:37.220Z,51.13
2018-06-24T13:59:43.968Z,51.13
2018-06-24T14:00:50.694Z,51.01
2018-06-24T14:01:57.815Z,50.83
2018-06-24T14:03:04.779Z,51.33
2018-06-24T14:04:11.595Z,51.11
2018-06-24T14:05:18.399Z,51.21
2018-06-24T14:06:26.604Z,51.13
2018-06-24T14:07:32.226Z,51.12
2018-06-24T14:08:39.346Z,51.19
2018-06-24T14:09:46.178Z,51.07
2018-06-24T14:10:53.043Z,51.16
2018-06-24T14:12:05.058Z,51.13
2018-06-24T14:13:06.878Z,51.31
2018-06-24T14:14:14.831Z,51.28
2018-06-24T14:15:20.607Z,51.49
2018-06-24T14:16:27.470Z,51.60
2018-06-24T14:17:34.236Z,51.82
2018-06-24T14:18:41.041Z,51.69
2018-06-24T14:19:47.985Z,51.60
2018-06-24T14:20:54.807Z,51.44
2018-06-24T14:22:01.613Z,51.49
2018-06-24T14:23:08.501Z,51.50